createdAt,value
2022-11-22T00:01:18.447Z,86.59
2022-11-22T00:03:46.520Z,86.64
2022-11-22T00:06:14.596Z,86.60
2022-11-22T00:08:42.682Z,86.52
2022-11-22T00:11:10.812Z,86.37
2022-11-22T00:13:40.231Z,85.87
2022-11-22T00:16:08.348Z,85.96
2022-11-22T00:18:36.435Z,86.18
2022-11-22T00:21:08.941Z,86.18
2022-11-22T00:23:37.179Z,86.21
2022-11-22T00:26:06.948Z,86.17
2022-11-22T00:28:35.043Z,85.75
2022-11-22T00:31:04.480Z,85.56
2022-11-22T00:33:32.590Z,85.10
2022-11-22T00:36:00.730Z,84.83
2022-11-22T00:38:29.143Z,84.53
2022-11-22T00:40:57.269Z,84.42
2022-11-22T00:43:25.417Z,84.43
2022-11-22T00:45:53.952Z,84.54
2022-11-22T00:48:23.383Z,84.07
2022-11-22T00:50:51.494Z,83.66
2022-11-22T00:53:19.991Z,83.74
2022-11-22T00:55:48.180Z,83.52
2022-11-22T00:58:16.861Z,83.67
2022-11-22T01:00:45.380Z,83.90
2022-11-22T01:03:14.853Z,84.30
2022-11-22T01:05:44.355Z,84.58
2022-11-22T01:08:12.531Z,85.04
2022-11-22T01:10:40.721Z,84.85
2022-11-22T01:13:13.698Z,84.30
2022-11-22T01:15:41.814Z,84.17
2022-11-22T01:18:09.883Z,83.93
2022-11-22T01:20:37.981Z,83.96
2022-11-22T01:23:07.526Z,83.98
2022-11-22T01:25:35.650Z,84.33
2022-11-22T01:28:04.276Z,84.67
2022-11-22T01:30:32.450Z,85.04
2022-11-22T01:33:00.535Z,85.42
2022-11-22T01:35:28.695Z,85.93
2022-11-22T01:37:56.843Z,86.21
2022-11-22T01:40:26.355Z,85.97
2022-11-22T01:42:57.101Z,86.13
2022-11-22T01:45:48.604Z,86.47
2022-11-22T01:48:33.810Z,86.29
2022-11-22T01:51:08.985Z,85.83
2022-11-22T01:53:40.161Z,85.68
2022-11-22T01:56:14.286Z,85.30
2022-11-22T01:58:45.822Z,85.33
2022-11-22T02:01:14.063Z,85.20
2022-11-22T02:03:47.896Z,85.38
2022-11-22T02:06:17.227Z,85.49
2022-11-22T02:08:58.551Z,85.79
2022-11-22T02:11:34.003Z,85.49
2022-11-22T02:14:04.092Z,85.63
2022-11-22T02:16:33.064Z,85.58
2022-11-22T02:19:01.183Z,85.54
2022-11-22T02:21:30.318Z,85.54
2022-11-22T02:24:09.613Z,85.75
2022-11-22T02:26:39.128Z,85.83
2022-11-22T02:29:09.549Z,85.52
2022-11-22T02:31:43.445Z,85.26
2022-11-22T02:34:12.290Z,85.33
2022-11-22T02:36:46.613Z,85.36
2022-11-22T02:39:20.628Z,85.41
2022-11-22T02:41:51.307Z,85.47
2022-11-22T02:44:21.207Z,85.52
2022-11-22T02:46:52.185Z,85.76
2022-11-22T02:49:23.333Z,85.90
2022-11-22T02:51:53.445Z,85.98
2022-11-22T02:54:21.707Z,85.84
2022-11-22T02:56:51.228Z,85.61
2022-11-22T02:59:19.328Z,85.79
2022-11-22T03:01:48.717Z,85.51
2022-11-22T03:04:25.478Z,85.50
2022-11-22T03:06:56.167Z,85.72
2022-11-22T03:09:24.998Z,85.82
2022-11-22T03:11:55.776Z,85.78
2022-11-22T03:14:24.132Z,85.91
2022-11-22T03:16:52.862Z,85.77
2022-11-22T03:19:21.243Z,85.48
2022-11-22T03:21:49.552Z,85.48
2022-11-22T03:24:19.916Z,85.61
2022-11-22T03:26:49.420Z,85.23
2022-11-22T03:29:19.299Z,85.03
2022-11-22T03:31:47.524Z,85.05
2022-11-22T03:34:17.014Z,85.09
2022-11-22T03:36:45.447Z,85.31
2022-11-22T03:39:13.609Z,85.56
2022-11-22T03:41:41.880Z,85.26
2022-11-22T03:44:10.025Z,85.26
2022-11-22T03:46:39.533Z,85.08
2022-11-22T03:49:07.707Z,84.92
2022-11-22T03:51:35.876Z,84.88
2022-11-22T03:54:04.034Z,84.58
2022-11-22T03:56:32.297Z,84.69
2022-11-22T03:59:00.631Z,84.09
2022-11-22T04:01:28.811Z,84.21
2022-11-22T04:03:58.375Z,84.76
2022-11-22T04:06:26.471Z,84.78
2022-11-22T04:08:54.623Z,84.64
2022-11-22T04:11:22.806Z,84.23
2022-11-22T04:14:08.260Z,84.21
2022-11-22T04:16:36.470Z,83.82
2022-11-22T04:19:05.923Z,83.42
2022-11-22T04:21:36.024Z,83.30
2022-11-22T04:24:24.412Z,83.63
2022-11-22T04:26:52.860Z,83.33
2022-11-22T04:29:23.158Z,83.49
2022-11-22T04:32:10.570Z,83.72
2022-11-22T04:34:40.048Z,83.57
2022-11-22T04:37:08.404Z,82.80
2022-11-22T04:39:36.654Z,82.33
2022-11-22T04:42:22.548Z,82.21
2022-11-22T04:44:50.690Z,82.85
2022-11-22T04:47:34.126Z,82.90
2022-11-22T04:50:25.805Z,82.53
2022-11-22T04:52:55.389Z,82.58
2022-11-22T04:55:23.654Z,83.05
2022-11-22T04:57:57.525Z,83.09
2022-11-22T05:00:28.109Z,83.49
2022-11-22T05:02:56.298Z,83.34
2022-11-22T05:05:26.765Z,83.04
2022-11-22T05:07:55.190Z,83.46
2022-11-22T05:10:26.856Z,83.80
2022-11-22T05:12:57.110Z,83.94
2022-11-22T05:15:25.372Z,84.20
2022-11-22T05:17:53.500Z,84.39
2022-11-22T05:20:21.627Z,84.19
2022-11-22T05:23:08.675Z,84.21
2022-11-22T05:25:36.747Z,83.89
2022-11-22T05:28:04.919Z,83.53
2022-11-22T05:30:32.989Z,83.15
2022-11-22T05:33:01.119Z,83.40
2022-11-22T05:35:29.486Z,83.68
2022-11-22T05:37:59.575Z,83.88
2022-11-22T05:40:28.099Z,83.45
2022-11-22T05:42:56.244Z,83.14
2022-11-22T05:45:24.360Z,82.76
2022-11-22T05:47:52.524Z,82.64
2022-11-22T05:50:20.673Z,82.53
2022-11-22T05:52:48.816Z,82.82
2022-11-22T05:55:18.512Z,82.78
2022-11-22T05:57:46.637Z,82.91
2022-11-22T06:00:15.931Z,82.72
2022-11-22T06:02:44.083Z,82.96
2022-11-22T06:05:12.310Z,82.67
2022-11-22T06:07:40.498Z,82.37
2022-11-22T06:10:10.146Z,82.28
2022-11-22T06:12:39.663Z,82.14
2022-11-22T06:15:09.444Z,82.26
2022-11-22T06:17:37.598Z,82.08
2022-11-22T06:20:07.035Z,81.95
2022-11-22T06:22:35.233Z,81.93
2022-11-22T06:25:03.428Z,82.21
2022-11-22T06:27:31.734Z,82.70
2022-11-22T06:30:01.191Z,83.19
2022-11-22T06:32:29.353Z,83.60
2022-11-22T06:34:57.442Z,83.30
2022-11-22T06:37:25.619Z,82.61
2022-11-22T06:39:53.893Z,82.99
2022-11-22T06:42:22.015Z,82.61
2022-11-22T06:44:50.141Z,82.82
2022-11-22T06:47:19.628Z,83.13
2022-11-22T06:49:47.765Z,83.03
2022-11-22T06:52:15.866Z,83.17
2022-11-22T06:54:44.065Z,83.37
2022-11-22T06:57:14.985Z,83.62
2022-11-22T06:59:43.108Z,83.98
2022-11-22T07:02:13.294Z,84.16
2022-11-22T07:04:56.289Z,83.98
2022-11-22T07:07:31.027Z,83.84
2022-11-22T07:09:59.275Z,83.86
2022-11-22T07:12:27.758Z,83.45
2022-11-22T07:14:55.822Z,83.35
2022-11-22T07:17:23.848Z,82.65
2022-11-22T07:19:53.195Z,82.67
2022-11-22T07:22:21.214Z,82.68
2022-11-22T07:24:49.262Z,82.60
2022-11-22T07:27:17.324Z,82.84
2022-11-22T07:29:45.437Z,83.09
2022-11-22T07:32:13.463Z,82.83
2022-11-22T07:34:41.508Z,82.45
2022-11-22T07:37:10.966Z,82.23
2022-11-22T07:39:39.028Z,82.29
2022-11-22T07:42:07.152Z,81.93
2022-11-22T07:44:35.196Z,82.08
2022-11-22T07:47:03.226Z,81.50
2022-11-22T07:49:31.499Z,82.09
2022-11-22T07:52:00.052Z,82.09
2022-11-22T07:54:29.504Z,82.38
2022-11-22T07:56:57.614Z,82.14
2022-11-22T07:59:25.632Z,82.17
2022-11-22T08:01:53.764Z,82.41
2022-11-22T08:04:21.839Z,81.86
2022-11-22T08:06:49.924Z,81.35
2022-11-22T08:09:17.976Z,81.33
2022-11-22T08:11:47.423Z,81.36
2022-11-22T08:14:15.657Z,81.47
2022-11-22T08:16:43.749Z,81.52
2022-11-22T08:19:15.932Z,81.09
2022-11-22T08:21:43.985Z,80.15
2022-11-22T08:24:12.458Z,78.81
2022-11-22T08:26:40.597Z,77.77
2022-11-22T08:29:14.561Z,77.65
2022-11-22T08:31:42.833Z,77.60
2022-11-22T08:34:10.859Z,77.68
2022-11-22T08:36:39.208Z,77.07
2022-11-22T08:39:07.520Z,77.17
2022-11-22T08:41:35.741Z,77.40
2022-11-22T08:44:03.808Z,77.47
2022-11-22T08:46:33.186Z,76.44
2022-11-22T08:49:03.694Z,75.91
2022-11-22T08:51:36.867Z,76.32
2022-11-22T08:54:05.044Z,76.07
2022-11-22T08:56:33.093Z,75.70
2022-11-22T08:59:01.307Z,75.84
2022-11-22T09:01:29.399Z,75.72
2022-11-22T09:03:58.867Z,76.12
2022-11-22T09:09:36.272Z,74.71
2022-11-22T09:12:03.083Z,74.15
2022-11-22T09:14:31.135Z,74.27
2022-11-22T09:16:59.176Z,73.43
2022-11-22T09:19:28.721Z,73.48
2022-11-22T09:21:56.957Z,73.94
2022-11-22T09:24:25.071Z,73.07
2022-11-22T09:26:53.135Z,73.43
2022-11-22T09:29:21.236Z,73.63
2022-11-22T09:31:49.566Z,73.41
2022-11-22T09:34:17.577Z,72.90
2022-11-22T09:36:46.951Z,72.89
2022-11-22T09:39:15.038Z,72.67
2022-11-22T09:42:33.430Z,72.50
2022-11-22T09:45:27.426Z,71.90
2022-11-22T09:48:11.319Z,72.23
2022-11-22T09:50:49.820Z,72.55
2022-11-22T09:53:27.819Z,72.94
2022-11-22T09:56:01.596Z,73.34
2022-11-22T09:58:34.404Z,73.41
2022-11-22T10:01:11.334Z,73.64
2022-11-22T10:03:47.321Z,73.59
2022-11-22T10:06:23.865Z,73.20
2022-11-22T10:09:11.754Z,72.11
2022-11-22T10:11:48.003Z,72.00
2022-11-22T10:14:32.792Z,72.45
2022-11-22T10:17:18.547Z,72.76
2022-11-22T10:19:59.489Z,71.60
2022-11-22T10:22:31.106Z,71.91
2022-11-22T10:25:04.223Z,71.33
2022-11-22T10:27:34.427Z,71.53
2022-11-22T10:30:07.446Z,71.70
2022-11-22T10:32:44.153Z,70.42
2022-11-22T10:35:41.729Z,70.38
2022-11-22T10:38:44.053Z,70.55
2022-11-22T10:41:38.501Z,69.95
2022-11-22T10:44:28.630Z,70.37
2022-11-22T10:47:13.352Z,70.72
2022-11-22T10:49:57.106Z,69.67
2022-11-22T10:52:37.636Z,70.73
2022-11-22T10:55:27.092Z,71.27
2022-11-22T10:58:08.827Z,71.13
2022-11-22T11:00:45.078Z,71.41
2022-11-22T11:03:28.498Z,71.27
2022-11-22T11:06:22.820Z,71.52
2022-11-22T11:09:54.845Z,71.93
2022-11-22T11:11:52.288Z,72.00
2022-11-22T11:14:31.528Z,72.22
2022-11-22T11:17:02.243Z,72.50
2022-11-22T11:19:36.505Z,72.62
2022-11-22T11:22:44.283Z,73.14
2022-11-22T11:25:31.705Z,73.03
2022-11-22T11:28:06.919Z,72.94
2022-11-22T11:30:46.628Z,72.94
2022-11-22T11:33:30.171Z,73.46
2022-11-22T11:36:06.849Z,73.75
2022-11-22T11:38:38.590Z,74.36
2022-11-22T11:41:26.610Z,74.71
2022-11-22T11:43:57.262Z,75.07
2022-11-22T11:46:29.696Z,75.15
2022-11-22T11:49:11.921Z,75.52
2022-11-22T11:51:42.344Z,75.80
2022-11-22T11:54:16.563Z,76.03
2022-11-22T11:56:50.882Z,76.50
2022-11-22T11:59:21.376Z,76.60
2022-11-22T12:01:58.410Z,76.60
2022-11-22T12:04:31.210Z,76.47
2022-11-22T12:07:05.449Z,76.32
2022-11-22T12:09:37.654Z,76.27
2022-11-22T12:12:36.941Z,75.96
2022-11-22T12:15:17.800Z,74.68
2022-11-22T12:17:57.205Z,74.69
2022-11-22T12:20:41.476Z,74.89
2022-11-22T12:23:21.526Z,75.05
2022-11-22T12:25:54.521Z,74.52
2022-11-22T12:28:26.433Z,74.61
2022-11-22T12:31:01.101Z,74.79
2022-11-22T12:33:37.386Z,74.85
2022-11-22T12:36:15.744Z,74.78
2022-11-22T12:38:46.951Z,74.84
2022-11-22T12:41:19.100Z,75.10
2022-11-22T12:43:54.575Z,75.17
2022-11-22T12:46:28.985Z,74.86
2022-11-22T12:49:03.746Z,74.68
2022-11-22T12:51:46.554Z,74.84
2022-11-22T12:54:23.505Z,75.02
2022-11-22T12:56:57.032Z,75.37
2022-11-22T12:59:39.214Z,75.49
2022-11-22T13:02:32.012Z,75.76
2022-11-22T13:05:10.250Z,75.82
2022-11-22T13:07:58.266Z,75.83
2022-11-22T13:10:37.352Z,76.29
2022-11-22T13:13:11.156Z,76.25
2022-11-22T13:15:41.824Z,76.33
2022-11-22T13:18:12.611Z,76.23
2022-11-22T13:20:58.004Z,76.01
2022-11-22T13:23:50.862Z,76.09
2022-11-22T13:26:30.008Z,76.46
2022-11-22T13:28:59.327Z,76.49
2022-11-22T13:31:27.638Z,76.62
2022-11-22T13:33:59.289Z,76.77
2022-11-22T13:36:41.201Z,76.95
2022-11-22T13:39:19.908Z,76.93
2022-11-22T13:42:06.976Z,76.86
2022-11-22T13:44:52.988Z,76.31
2022-11-22T13:47:43.465Z,76.26
2022-11-22T13:51:03.345Z,76.63
2022-11-22T13:53:36.887Z,76.97
2022-11-22T13:56:59.579Z,76.98
2022-11-22T13:59:28.052Z,77.22
2022-11-22T14:02:22.396Z,77.31
2022-11-22T14:04:56.208Z,77.50
2022-11-22T14:07:40.006Z,77.59
2022-11-22T14:10:35.800Z,77.68
2022-11-22T14:13:36.953Z,78.06
2022-11-22T14:16:28.760Z,78.31
2022-11-22T14:19:18.746Z,78.40
2022-11-22T14:22:19.445Z,78.87
2022-11-22T14:25:05.522Z,79.15
2022-11-22T14:27:52.202Z,79.56
2022-11-22T14:30:22.099Z,79.65
2022-11-22T14:33:04.225Z,79.90
2022-11-22T14:35:35.894Z,80.29
2022-11-22T14:38:30.627Z,80.35
2022-11-22T14:41:43.890Z,80.76
2022-11-22T14:44:18.371Z,81.15
2022-11-22T14:46:56.164Z,81.38
2022-11-22T14:49:42.891Z,81.56
2022-11-22T14:52:22.318Z,82.10
2022-11-22T14:54:57.476Z,82.32
2022-11-22T14:57:30.323Z,82.92
2022-11-22T15:00:19.858Z,83.29
2022-11-22T15:03:37.073Z,83.72
2022-11-22T15:09:10.825Z,84.03
2022-11-22T15:09:53.949Z,84.51
2022-11-22T15:13:11.622Z,84.82
2022-11-22T15:57:31.951Z,89.71
2022-11-22T16:00:00.942Z,89.64
2022-11-22T16:02:32.307Z,90.09
2022-11-22T16:06:07.268Z,90.30
2022-11-22T16:07:57.306Z,90.35
2022-11-22T16:10:38.565Z,90.53
2022-11-22T16:13:15.158Z,90.84
2022-11-22T16:15:43.274Z,91.10
2022-11-22T16:18:28.433Z,91.23
2022-11-22T16:21:06.109Z,91.20
2022-11-22T16:23:37.296Z,91.39
2022-11-22T16:26:24.611Z,91.69
2022-11-22T16:28:55.196Z,91.62
2022-11-22T16:31:26.048Z,91.76
2022-11-22T16:33:56.517Z,91.80
2022-11-22T16:36:30.446Z,91.74
2022-11-22T16:38:59.525Z,91.93
2022-11-22T16:41:30.349Z,91.99
2022-11-22T16:44:02.898Z,92.07
2022-11-22T16:46:31.473Z,92.18
2022-11-22T16:48:59.594Z,92.33
2022-11-22T16:51:30.883Z,92.16
2022-11-22T16:54:06.736Z,91.91
2022-11-22T16:56:35.186Z,91.69
2022-11-22T16:59:06.897Z,91.39
2022-11-22T17:01:42.012Z,91.31
2022-11-22T17:04:23.040Z,91.12
2022-11-22T17:06:53.164Z,91.12
2022-11-22T17:09:21.266Z,91.10
2022-11-22T17:11:50.266Z,91.32
2022-11-22T17:14:20.675Z,90.83
2022-11-22T17:16:48.915Z,91.03
2022-11-22T17:19:51.540Z,90.50
2022-11-22T17:22:07.227Z,90.39
2022-11-22T17:24:35.470Z,90.66
2022-11-22T17:27:03.596Z,90.74
2022-11-22T17:32:20.263Z,90.71
2022-11-22T17:34:48.400Z,90.75
2022-11-22T17:37:17.920Z,91.00
2022-11-22T17:39:46.358Z,90.99
2022-11-22T17:42:15.244Z,91.23
2022-11-22T17:44:43.355Z,91.40
2022-11-22T17:47:11.507Z,90.86
2022-11-22T17:49:39.878Z,90.44
2022-11-22T17:52:08.020Z,90.69
2022-11-22T17:54:38.767Z,90.82
2022-11-22T17:57:06.841Z,90.82
2022-11-22T17:59:35.197Z,90.60
2022-11-22T18:02:03.478Z,90.28
2022-11-22T18:04:31.954Z,89.87
2022-11-22T18:07:00.255Z,89.70
2022-11-22T18:09:28.639Z,89.68
2022-11-22T18:11:58.394Z,90.06
2022-11-22T18:14:27.589Z,89.62
2022-11-22T18:16:55.683Z,89.57
2022-11-22T18:19:24.308Z,89.89
2022-11-22T18:21:52.744Z,90.38
2022-11-22T18:24:20.855Z,90.55
2022-11-22T18:26:49.639Z,90.96
2022-11-22T18:32:07.360Z,91.23
2022-11-22T18:34:35.579Z,91.37
2022-11-22T18:37:05.104Z,91.73
2022-11-22T18:42:24.366Z,92.00
2022-11-22T18:44:53.832Z,92.12
2022-11-22T18:47:21.928Z,92.40
2022-11-22T18:49:50.179Z,92.33
2022-11-22T18:52:18.379Z,92.26
2022-11-22T18:54:46.607Z,92.12
2022-11-22T18:57:14.750Z,92.34
2022-11-22T18:59:42.849Z,92.42
2022-11-22T19:02:12.354Z,92.59
2022-11-22T19:04:40.455Z,92.71
2022-11-22T19:07:08.641Z,92.79
2022-11-22T19:09:36.867Z,93.09
2022-11-22T19:12:05.685Z,93.29
2022-11-22T19:14:34.009Z,93.28
2022-11-22T19:17:02.359Z,93.28
2022-11-22T19:19:32.322Z,93.11
2022-11-22T19:22:01.135Z,93.42
2022-11-22T19:24:30.021Z,93.71
2022-11-22T19:26:58.462Z,93.49
2022-11-22T19:29:26.644Z,93.72
2022-11-22T19:31:54.814Z,93.38
2022-11-22T19:34:22.923Z,93.28
2022-11-22T19:36:52.438Z,93.11
2022-11-22T19:39:20.588Z,93.08
2022-11-22T19:41:48.764Z,93.16
2022-11-22T19:44:16.876Z,93.14
2022-11-22T19:46:45.006Z,93.19
2022-11-22T19:49:13.224Z,93.26
2022-11-22T19:51:41.428Z,93.14
2022-11-22T19:54:11.028Z,93.22
2022-11-22T19:56:39.993Z,93.11
2022-11-22T19:59:10.340Z,92.74
2022-11-22T20:01:39.669Z,92.40
2022-11-22T20:04:08.103Z,92.25
2022-11-22T20:06:37.622Z,92.13
2022-11-22T20:09:09.157Z,91.93
2022-11-22T20:11:40.067Z,91.89
2022-11-22T20:14:09.753Z,92.12
2022-11-22T20:16:41.115Z,91.99
2022-11-22T20:19:09.599Z,91.80
2022-11-22T20:21:39.881Z,91.76
2022-11-22T20:24:08.715Z,91.93
2022-11-22T20:26:38.396Z,92.18
2022-11-22T20:29:09.267Z,91.80
2022-11-22T20:31:38.567Z,91.30
2022-11-22T20:34:06.791Z,90.82
2022-11-22T20:36:36.591Z,90.35
2022-11-22T20:39:10.352Z,90.22
2022-11-22T20:41:41.449Z,89.68
2022-11-22T20:44:14.423Z,89.51
2022-11-22T20:46:43.031Z,88.95
2022-11-22T20:49:11.304Z,89.31
2022-11-22T20:51:40.174Z,89.36
2022-11-22T20:54:09.244Z,89.54
2022-11-22T20:56:39.538Z,89.27
2022-11-22T20:59:07.878Z,89.71
2022-11-22T21:01:36.104Z,89.45
2022-11-22T21:04:04.553Z,88.97
2022-11-22T21:06:34.801Z,88.77
2022-11-22T21:09:02.937Z,88.97
2022-11-22T21:11:31.967Z,88.54
2022-11-22T21:14:01.652Z,88.30
2022-11-22T21:16:31.328Z,88.21
2022-11-22T21:19:01.991Z,87.85
2022-11-22T21:21:31.554Z,87.94
2022-11-22T21:24:02.546Z,87.90
2022-11-22T21:26:31.603Z,87.90
2022-11-22T21:29:03.224Z,87.96
2022-11-22T21:31:31.437Z,87.26
2022-11-22T21:33:59.574Z,86.52
2022-11-22T21:36:27.889Z,86.68
2022-11-22T21:38:55.998Z,86.44
2022-11-22T21:41:40.885Z,86.90
2022-11-22T21:44:11.592Z,87.30
2022-11-22T21:46:40.096Z,87.51
2022-11-22T21:49:08.593Z,87.53
2022-11-22T21:51:36.735Z,87.64
2022-11-22T21:54:05.919Z,87.66
2022-11-22T21:56:34.384Z,87.95
2022-11-22T21:59:02.638Z,88.26
2022-11-22T22:01:32.757Z,88.13
2022-11-22T22:04:00.882Z,88.26
2022-11-22T22:06:29.012Z,88.39
2022-11-22T22:08:57.216Z,88.56
2022-11-22T22:11:25.372Z,88.54
2022-11-22T22:13:55.144Z,88.58
2022-11-22T22:16:25.861Z,88.63
2022-11-22T22:18:55.462Z,88.60
2022-11-22T22:21:23.572Z,88.73
2022-11-22T22:23:53.307Z,89.21
2022-11-22T22:26:21.471Z,89.48
2022-11-22T22:28:49.579Z,89.25
2022-11-22T22:31:21.440Z,89.30
2022-11-22T22:33:51.012Z,89.27
2022-11-22T22:36:20.631Z,89.24
2022-11-22T22:38:50.151Z,89.32
2022-11-22T22:41:19.007Z,89.13
2022-11-22T22:43:49.736Z,89.11
2022-11-22T22:46:20.045Z,89.22
2022-11-22T22:48:49.553Z,89.21
2022-11-22T22:51:21.437Z,89.04
2022-11-22T22:53:50.539Z,89.14
2022-11-22T22:56:21.532Z,89.08
2022-11-22T22:58:53.904Z,89.29
2022-11-22T23:01:25.354Z,89.24
2022-11-22T23:03:57.225Z,88.68
2022-11-22T23:06:29.843Z,88.04
2022-11-22T23:08:59.314Z,87.72
2022-11-22T23:11:44.113Z,87.30
2022-11-22T23:14:12.940Z,87.23
2022-11-22T23:16:41.210Z,86.73
2022-11-22T23:19:10.041Z,86.34
2022-11-22T23:21:39.619Z,86.06
2022-11-22T23:24:09.212Z,86.09
2022-11-22T23:26:38.436Z,85.75
2022-11-22T23:29:06.873Z,85.46
2022-11-22T23:31:35.080Z,85.26
2022-11-22T23:34:03.520Z,85.35
2022-11-22T23:36:34.814Z,84.99
2022-11-22T23:39:07.101Z,85.40
2022-11-22T23:41:35.272Z,84.67
2022-11-22T23:44:03.701Z,84.07
2022-11-22T23:46:31.807Z,84.68
2022-11-22T23:49:02.331Z,84.81
2022-11-22T23:51:33.252Z,84.29
2022-11-22T23:54:04.036Z,83.66
2022-11-22T23:56:36.291Z,82.92
2022-11-22T23:59:05.997Z,83.20
